Time;durP1;ratioP1;P1;durP2;ratioP2;P2;SDS_P1;SDS_P2;PMS_P1;PMS_P2;Temp;Humidity;BMP_temperature;BMP_pressure;BME280_temperature;BME280_humidity;BME280_pressure;Samples;Min_cycle;Max_cycle;Signal;HPM_P1;HPM_P2
2022/04/15 00:02:03;;;;;;;36.90;23.75;;;;;;;13.60;83.24;96641.84;5046685;28;20052;-74
2022/04/15 00:04:31;;;;;;;34.58;23.48;;;;;;;13.60;83.46;96644.56;5046148;28;20052;-76
2022/04/15 00:06:58;;;;;;;32.78;22.30;;;;;;;13.53;83.77;96641.56;5047491;28;20079;-76
2022/04/15 00:09:25;;;;;;;38.45;23.25;;;;;;;13.50;84.56;96628.53;5045969;28;20455;-76
2022/04/15 00:11:53;;;;;;;39.55;24.73;;;;;;;13.46;84.99;96622.09;5046627;28;20064;-77
2022/04/15 00:14:20;;;;;;;35.03;23.98;;;;;;;13.48;85.17;96623.38;5044812;28;20118;-76
2022/04/15 00:16:46;;;;;;;37.67;24.30;;;;;;;13.54;84.97;96618.53;5046425;28;20604;-75
2022/04/15 00:19:15;;;;;;;35.83;23.13;;;;;;;13.56;84.63;96622.53;5046177;28;20715;-77
2022/04/15 00:21:41;;;;;;;39.28;25.98;;;;;;;13.58;84.98;96614.00;5045777;28;20052;-75
2022/04/15 00:24:08;;;;;;;37.67;24.73;;;;;;;13.61;85.18;96613.31;5043718;28;20049;-76
2022/04/15 00:26:34;;;;;;;35.47;23.33;;;;;;;13.62;84.88;96620.41;5046170;28;20086;-75
2022/04/15 00:29:05;;;;;;;38.22;25.15;;;;;;;13.63;85.37;96623.97;5046982;28;20152;-75
2022/04/15 00:31:32;;;;;;;34.70;22.90;;;;;;;13.63;85.38;96621.22;5044553;28;20043;-75
2022/04/15 00:33:58;;;;;;;45.90;25.90;;;;;;;13.62;85.29;96622.34;5046346;28;20071;-77
2022/04/15 00:36:26;;;;;;;39.13;24.92;;;;;;;13.48;85.70;96622.59;5046017;28;20576;-75
2022/04/15 00:38:53;;;;;;;41.35;25.38;;;;;;;13.09;86.79;96620.94;5046559;28;20053;-75
2022/04/15 00:41:19;;;;;;;40.95;26.35;;;;;;;12.73;88.65;96622.97;5045628;28;20748;-75
2022/04/15 00:43:46;;;;;;;39.75;26.40;;;;;;;12.68;89.55;96623.16;5032544;28;20408;-76
2022/04/15 00:46:12;;;;;;;41.92;27.52;;;;;;;12.70;89.79;96620.91;5026269;28;20056;-75
2022/04/15 00:48:39;;;;;;;49.47;29.23;;;;;;;12.76;89.74;96633.28;5025513;28;20073;-76
2022/04/15 00:51:06;;;;;;;42.22;27.63;;;;;;;12.64;90.17;96630.41;5026188;28;20072;-75
2022/04/15 00:53:34;;;;;;;42.88;27.83;;;;;;;12.69;90.17;96627.50;5025583;28;20053;-75
2022/04/15 00:56:03;;;;;;;50.00;28.92;;;;;;;12.75;89.98;96623.47;5026108;28;20054;-76
2022/04/15 00:58:32;;;;;;;42.72;26.40;;;;;;;12.66;89.74;96622.69;5045279;28;20041;-75
2022/04/15 01:00:59;;;;;;;43.88;27.48;;;;;;;12.67;90.06;96623.47;5045508;28;20072;-75
2022/04/15 01:03:26;;;;;;;49.42;29.92;;;;;;;12.69;89.99;96629.44;5044854;28;20052;-76
2022/04/15 01:05:57;;;;;;;44.25;26.98;;;;;;;12.48;90.32;96637.50;5045796;28;20057;-75
2022/04/15 01:08:26;;;;;;;44.88;27.83;;;;;;;12.34;91.34;96645.06;5045958;28;20132;-75
2022/04/15 01:10:57;;;;;;;48.85;30.27;;;;;;;12.13;92.29;96648.44;5045122;28;20060;-75
2022/04/15 01:13:25;;;;;;;47.90;29.83;;;;;;;12.25;92.89;96662.25;5044937;28;20049;-76
2022/04/15 01:15:54;;;;;;;46.53;27.38;;;;;;;12.46;92.09;96667.06;5046217;28;20053;-76
2022/04/15 01:18:20;;;;;;;50.20;29.35;;;;;;;12.53;92.00;96672.84;5045266;28;20071;-76
2022/04/15 01:20:49;;;;;;;42.03;28.70;;;;;;;12.43;92.19;96667.72;5045361;28;20738;-75
2022/04/15 01:23:17;;;;;;;55.55;31.20;;;;;;;12.38;93.25;96670.63;5045276;28;20072;-75
2022/04/15 01:25:43;;;;;;;51.92;31.55;;;;;;;12.37;93.48;96674.44;5045591;28;20064;-74
2022/04/15 01:28:10;;;;;;;51.33;31.48;;;;;;;12.49;93.69;96669.97;5044594;28;20052;-75
2022/04/15 01:30:37;;;;;;;52.72;31.92;;;;;;;12.52;93.88;96672.03;5045577;28;20052;-76
2022/04/15 01:33:03;;;;;;;52.20;31.13;;;;;;;12.58;93.44;96675.44;5044253;28;20056;-74
2022/04/15 01:35:30;;;;;;;49.63;30.48;;;;;;;12.56;93.12;96672.19;5045677;28;20511;-75
2022/04/15 01:37:59;;;;;;;53.85;31.58;;;;;;;12.61;93.66;96636.50;5045062;28;20060;-74
2022/04/15 01:40:27;;;;;;;60.03;34.80;;;;;;;12.70;93.66;96623.66;5044855;28;20082;-75
2022/04/15 01:42:54;;;;;;;53.42;32.15;;;;;;;12.74;93.62;96641.00;5044069;28;20052;-74
2022/04/15 01:45:21;;;;;;;50.60;32.15;;;;;;;12.57;93.67;96654.66;5044988;28;20069;-76
2022/04/15 01:47:47;;;;;;;54.47;34.35;;;;;;;12.44;94.56;96661.13;5045082;28;20066;-74
2022/04/15 01:50:14;;;;;;;55.55;34.13;;;;;;;12.24;95.74;96660.63;5044082;28;20041;-75
2022/04/15 01:52:40;;;;;;;60.67;35.45;;;;;;;12.29;95.98;96656.94;5045429;28;20057;-75
2022/04/15 01:55:08;;;;;;;56.55;35.63;;;;;;;12.42;95.94;96652.44;5044173;28;20053;-76
2022/04/15 01:57:35;;;;;;;54.65;34.47;;;;;;;12.61;94.93;96660.31;5045485;28;20049;-75
2022/04/15 02:00:02;;;;;;;55.08;33.80;;;;;;;12.63;94.40;96661.56;5043743;28;20056;-75
2022/04/15 02:02:28;;;;;;;62.78;36.40;;;;;;;12.52;93.81;96674.75;5045493;28;20052;-75
2022/04/15 02:04:55;;;;;;;55.47;35.28;;;;;;;12.35;94.51;96671.25;5044518;28;20059;-75
2022/04/15 02:07:22;;;;;;;55.55;35.78;;;;;;;12.21;95.41;96677.66;5044801;28;20060;-75
2022/04/15 02:09:48;;;;;;;59.95;36.67;;;;;;;12.30;95.91;96669.47;5044715;28;20057;-77
2022/04/15 02:12:15;;;;;;;57.00;36.85;;;;;;;12.36;95.77;96651.78;5044699;28;20110;-76
2022/04/15 02:14:42;;;;;;;58.10;37.03;;;;;;;12.45;95.59;96649.88;5044716;28;20060;-75
2022/04/15 02:17:09;;;;;;;59.88;37.97;;;;;;;12.54;94.91;96669.78;5044162;28;20056;-76
2022/04/15 02:19:35;;;;;;;62.17;37.55;;;;;;;12.57;94.62;96673.78;5045229;28;20049;-76
2022/04/15 02:22:02;;;;;;;59.28;36.50;;;;;;;12.66;94.40;96674.59;5043868;28;20049;-75
2022/04/15 02:24:29;;;;;;;56.67;34.63;;;;;;;12.72;94.14;96678.75;5045540;28;20044;-75
2022/04/15 02:26:55;;;;;;;58.80;35.05;;;;;;;12.73;93.85;96683.09;5044595;28;20450;-76
2022/04/15 02:29:21;;;;;;;51.42;33.88;;;;;;;12.78;93.47;96684.84;5044501;28;20052;-75
2022/04/15 02:31:49;;;;;;;54.60;32.70;;;;;;;12.67;93.21;96684.38;5044457;28;20510;-75
2022/04/15 02:34:16;;;;;;;48.88;32.95;;;;;;;12.75;92.88;96689.06;5044280;28;20056;-76
2022/04/15 02:36:42;;;;;;;54.90;34.92;;;;;;;12.64;92.42;96690.53;5044596;28;20488;-76
2022/04/15 02:39:11;;;;;;;56.83;34.88;;;;;;;12.46;93.11;96695.16;5044046;28;20044;-74
2022/04/15 02:41:39;;;;;;;56.70;35.72;;;;;;;12.53;93.60;96689.25;5044941;28;20140;-75
2022/04/15 02:44:07;;;;;;;57.88;35.50;;;;;;;12.60;93.47;96695.03;5043385;28;20056;-75
2022/04/15 02:46:34;;;;;;;61.35;36.85;;;;;;;12.72;93.01;96681.50;5045015;28;20053;-75
2022/04/15 02:49:02;;;;;;;55.35;35.95;;;;;;;12.89;92.63;96685.31;5044354;28;20057;-75
2022/04/15 02:51:29;;;;;;;59.83;34.95;;;;;;;12.86;91.88;96680.53;5044388;28;20052;-74
2022/04/15 02:53:55;;;;;;;58.00;36.95;;;;;;;12.90;91.95;96686.94;5044129;28;20057;-75
2022/04/15 02:56:22;;;;;;;57.35;34.83;;;;;;;12.69;91.85;96698.56;5047475;28;20056;-75
2022/04/15 02:58:48;;;;;;;65.40;37.35;;;;;;;12.59;92.58;96698.88;5048286;28;20056;-74
2022/04/15 03:01:15;;;;;;;64.05;37.30;;;;;;;12.47;93.40;96701.44;5047466;28;20045;-74
2022/04/15 03:03:41;;;;;;;69.18;37.50;;;;;;;12.44;93.96;96707.56;5048199;28;20415;-75
2022/04/15 03:06:09;;;;;;;62.22;38.17;;;;;;;12.54;93.38;96697.09;5047117;28;20507;-75
2022/04/15 03:08:35;;;;;;;62.53;36.25;;;;;;;12.58;93.27;96685.53;5048507;28;20049;-75
2022/04/15 03:11:02;;;;;;;62.13;36.28;;;;;;;12.66;93.00;96687.47;5046971;28;20056;-74
2022/04/15 03:13:29;;;;;;;63.13;36.65;;;;;;;12.71;92.74;96690.81;5047945;28;20049;-74
2022/04/15 03:15:55;;;;;;;64.47;35.13;;;;;;;12.80;92.37;96694.34;5047544;28;20091;-75
2022/04/15 03:18:22;;;;;;;55.80;34.97;;;;;;;12.83;92.14;96694.81;5047390;28;20060;-74
2022/04/15 03:20:50;;;;;;;61.30;37.08;;;;;;;12.76;92.00;96698.84;5047254;28;20296;-74
2022/04/15 03:23:19;;;;;;;70.40;38.17;;;;;;;12.70;92.32;96694.69;5046948;28;20045;-75
2022/04/15 03:25:46;;;;;;;55.45;35.33;;;;;;;12.64;92.44;96701.44;5047480;28;20049;-74
2022/04/15 03:28:13;;;;;;;60.53;35.50;;;;;;;12.60;92.59;96700.47;5046556;28;20048;-74
2022/04/15 03:30:39;;;;;;;63.72;35.28;;;;;;;12.54;92.43;96707.25;5047667;28;20072;-74
2022/04/15 03:33:06;;;;;;;64.63;35.75;;;;;;;12.46;92.94;96705.28;5046354;28;20049;-75
2022/04/15 03:35:32;;;;;;;70.30;38.40;;;;;;;12.45;93.50;96707.22;5047715;28;20072;-74
2022/04/15 03:37:59;;;;;;;67.60;38.25;;;;;;;12.42;93.70;96698.88;5046981;28;20141;-74
2022/04/15 03:40:27;;;;;;;74.53;39.35;;;;;;;12.42;93.92;96705.13;5046000;28;20045;-74
2022/04/15 03:42:56;;;;;;;64.68;37.50;;;;;;;12.43;94.13;96704.03;5044061;28;20049;-74
2022/04/15 03:45:22;;;;;;;68.35;38.22;;;;;;;12.46;93.34;96700.63;5046637;28;20068;-74
2022/04/15 03:47:50;;;;;;;64.90;35.60;;;;;;;12.42;93.02;96707.06;5046686;28;20052;-74
2022/04/15 03:50:17;;;;;;;67.20;36.65;;;;;;;12.44;92.81;96713.03;5046154;28;20048;-74
2022/04/15 03:52:46;;;;;;;65.47;36.15;;;;;;;12.48;92.70;96711.25;5047366;28;20045;-74
2022/04/15 03:55:14;;;;;;;63.42;37.15;;;;;;;12.54;92.35;96708.03;5046659;28;20056;-75
2022/04/15 03:57:41;;;;;;;60.35;34.15;;;;;;;12.54;92.19;96708.03;5047727;28;20068;-74
2022/04/15 04:00:10;;;;;;;58.75;35.58;;;;;;;12.58;92.01;96707.38;5046167;28;20073;-74
2022/04/15 04:02:37;;;;;;;59.08;34.75;;;;;;;12.52;91.97;96707.53;5047647;28;20052;-74
2022/04/15 04:05:05;;;;;;;63.38;35.50;;;;;;;12.42;91.62;96704.31;5046008;28;20053;-75
2022/04/15 04:07:31;;;;;;;64.45;38.35;;;;;;;12.31;92.38;96706.56;5046646;28;20068;-74
2022/04/15 04:09:58;;;;;;;66.13;37.38;;;;;;;12.35;93.00;96704.00;5046902;28;20053;-74
2022/04/15 04:12:24;;;;;;;66.03;37.47;;;;;;;12.41;92.76;96708.19;5045947;28;20053;-74
2022/04/15 04:14:52;;;;;;;66.45;37.45;;;;;;;12.46;92.62;96705.28;5046801;28;20813;-74
2022/04/15 04:17:18;;;;;;;62.45;36.33;;;;;;;12.53;92.31;96705.63;5045778;28;20710;-74
2022/04/15 04:19:46;;;;;;;60.90;36.20;;;;;;;12.53;91.84;96711.91;5047026;28;20531;-75
2022/04/15 04:22:13;;;;;;;65.65;36.63;;;;;;;12.49;92.04;96712.88;5045728;28;20045;-74
2022/04/15 04:24:39;;;;;;;66.60;37.03;;;;;;;12.56;91.78;96715.91;5047167;28;20056;-74
2022/04/15 04:27:06;;;;;;;63.67;37.47;;;;;;;12.59;92.01;96726.19;5045896;28;20087;-74
2022/04/15 04:29:32;;;;;;;63.95;36.40;;;;;;;12.70;91.70;96726.69;5046368;28;20052;-74
2022/04/15 04:32:00;;;;;;;61.47;35.35;;;;;;;12.76;91.25;96725.38;5046132;28;20049;-74
2022/04/15 04:34:27;;;;;;;63.83;35.45;;;;;;;12.81;91.07;96727.94;5045675;28;20455;-74
2022/04/15 04:36:53;;;;;;;56.90;35.50;;;;;;;12.86;90.73;96730.50;5046412;28;20069;-74
2022/04/15 04:39:21;;;;;;;64.85;35.05;;;;;;;12.91;90.62;96733.09;5045655;28;20052;-74
2022/04/15 04:41:47;;;;;;;57.25;34.35;;;;;;;12.87;90.24;96732.13;5045990;28;20072;-73
2022/04/15 04:44:14;;;;;;;63.95;35.92;;;;;;;12.81;90.59;96733.41;5045159;28;20052;-74
2022/04/15 04:46:40;;;;;;;61.53;36.15;;;;;;;12.84;90.54;96740.16;5046393;28;20049;-74
2022/04/15 04:49:08;;;;;;;61.92;36.65;;;;;;;12.75;90.70;96735.50;5045043;28;20618;-74
2022/04/15 04:51:35;;;;;;;64.40;38.03;;;;;;;12.79;90.72;96736.47;5046364;28;20057;-74
2022/04/15 04:54:02;;;;;;;58.17;36.58;;;;;;;12.74;90.75;96750.31;5046102;28;20056;-73
2022/04/15 04:56:29;;;;;;;63.50;36.25;;;;;;;12.77;90.57;96749.66;5046283;28;20070;-76
2022/04/15 04:58:55;;;;;;;60.80;35.38;;;;;;;12.82;90.38;96750.63;5046259;28;20064;-76
2022/04/15 05:01:22;;;;;;;59.03;34.42;;;;;;;12.80;90.21;96753.69;5044962;28;20057;-76
2022/04/15 05:03:48;;;;;;;55.75;34.28;;;;;;;12.83;89.98;96758.47;5045883;28;20053;-78
2022/04/15 05:06:16;;;;;;;68.10;37.35;;;;;;;12.79;90.21;96761.06;5044851;28;20048;-76
2022/04/15 05:08:42;;;;;;;56.22;34.90;;;;;;;12.83;89.85;96763.16;5046063;28;20052;-76
2022/04/15 05:11:09;;;;;;;61.78;36.28;;;;;;;12.88;90.22;96760.25;5044671;28;20063;-76
2022/04/15 05:13:35;;;;;;;62.80;35.90;;;;;;;12.85;89.77;96763.66;5046158;28;20053;-76
2022/04/15 05:16:02;;;;;;;56.70;34.83;;;;;;;12.93;89.91;96768.28;5044522;28;20053;-75
2022/04/15 05:18:28;;;;;;;64.75;35.75;;;;;;;12.98;89.31;96765.38;5045275;28;20052;-78
2022/04/15 05:20:55;;;;;;;59.83;34.75;;;;;;;13.02;89.04;96771.81;5045215;28;20045;-75
2022/04/15 05:23:22;;;;;;;62.13;36.70;;;;;;;13.01;89.42;96775.69;5044880;28;20059;-75
2022/04/15 05:25:49;;;;;;;61.53;36.53;;;;;;;13.03;89.85;96774.22;5045502;28;20052;-77
2022/04/15 05:28:15;;;;;;;64.97;36.75;;;;;;;13.01;90.22;96781.97;5044401;28;20063;-76
2022/04/15 05:30:42;;;;;;;56.33;34.15;;;;;;;13.00;90.17;96785.03;5045104;28;20080;-75
2022/04/15 05:33:08;;;;;;;68.03;38.00;;;;;;;12.92;91.33;96783.88;5044335;28;20392;-76
2022/04/15 05:35:35;;;;;;;69.90;38.45;;;;;;;12.91;91.72;96786.94;5045553;28;20049;-75
2022/04/15 05:38:02;;;;;;;66.53;36.75;;;;;;;12.92;91.98;96788.56;5044425;28;20526;-75
2022/04/15 05:40:30;;;;;;;72.60;37.60;;;;;;;12.90;92.02;96785.34;5044553;28;20037;-75
2022/04/15 05:42:57;;;;;;;61.67;36.75;;;;;;;12.88;92.50;96791.13;5044685;28;20292;-76
2022/04/15 05:45:24;;;;;;;58.05;35.88;;;;;;;12.90;92.37;96790.81;5044533;28;20052;-76
2022/04/15 05:47:53;;;;;;;58.50;35.92;;;;;;;12.85;92.39;96793.72;5044877;28;20423;-76
2022/04/15 05:50:19;;;;;;;69.13;38.70;;;;;;;12.87;92.93;96797.72;5044212;28;20049;-75
2022/04/15 05:52:46;;;;;;;62.20;36.65;;;;;;;12.93;93.25;96806.56;5045234;28;20053;-76
2022/04/15 05:55:12;;;;;;;69.50;37.30;;;;;;;12.95;92.96;96799.66;5044786;28;20048;-76
2022/04/15 05:57:40;;;;;;;63.35;35.75;;;;;;;12.95;91.58;96802.38;5045300;28;20049;-77
2022/04/15 06:00:08;;;;;;;60.15;32.88;;;;;;;12.96;91.61;96811.38;5043955;28;20048;-76
2022/04/15 06:02:35;;;;;;;67.60;33.53;;;;;;;12.96;91.47;96811.38;5045411;28;20045;-77
2022/04/15 06:05:01;;;;;;;60.70;32.45;;;;;;;12.93;91.46;96810.09;5043845;28;20061;-74
2022/04/15 06:07:28;;;;;;;61.28;32.13;;;;;;;12.94;91.45;96813.63;5045144;28;20041;-75
2022/04/15 06:09:55;;;;;;;64.70;33.75;;;;;;;12.95;91.62;96816.06;5044320;28;20060;-76
2022/04/15 06:12:22;;;;;;;59.60;32.63;;;;;;;13.04;90.74;96816.03;5044665;28;20145;-76
2022/04/15 06:14:50;;;;;;;53.60;29.63;;;;;;;13.15;90.04;96813.78;5045258;28;20053;-75
2022/04/15 06:17:21;;;;;;;59.70;30.65;;;;;;;13.15;89.10;96817.31;5044085;28;20056;-76
2022/04/15 06:19:48;;;;;;;63.60;32.00;;;;;;;13.21;89.37;96815.25;5044657;28;20067;-75
2022/04/15 06:22:14;;;;;;;57.15;31.02;;;;;;;13.41;89.67;96821.97;5043476;28;20056;-75
2022/04/15 06:24:41;;;;;;;56.55;30.98;;;;;;;13.45;88.48;96822.94;5045011;28;20486;-75
2022/04/15 06:27:07;;;;;;;61.75;31.60;;;;;;;13.47;88.16;96826.19;5043745;28;20499;-75
2022/04/15 06:29:34;;;;;;;53.97;29.17;;;;;;;13.49;87.43;96827.44;5045097;28;20049;-75
2022/04/15 06:32:01;;;;;;;63.15;32.47;;;;;;;13.43;87.18;96826.00;5048129;28;20064;-75
2022/04/15 06:34:28;;;;;;;65.32;33.20;;;;;;;13.37;87.60;96826.50;5047772;28;20657;-78
2022/04/15 06:36:54;;;;;;;61.90;32.90;;;;;;;13.41;87.21;96830.97;5048534;28;20045;-77
2022/04/15 06:39:21;;;;;;;61.50;32.15;;;;;;;13.51;87.01;96830.66;5047483;28;20052;-75
2022/04/15 06:41:47;;;;;;;63.40;32.97;;;;;;;13.49;86.74;96830.19;5048175;28;20049;-75
2022/04/15 06:44:14;;;;;;;55.97;30.80;;;;;;;13.49;85.85;96834.84;5047167;28;20691;-75
2022/04/15 06:46:40;;;;;;;58.50;31.77;;;;;;;13.47;85.19;96828.91;5048444;28;20068;-76
2022/04/15 06:49:08;;;;;;;60.88;34.30;;;;;;;13.56;85.89;96829.66;5047545;28;20139;-75
2022/04/15 06:51:35;;;;;;;62.55;34.25;;;;;;;13.50;86.19;96841.91;5048596;28;20156;-75
2022/04/15 06:54:01;;;;;;;60.83;34.85;;;;;;;13.52;86.50;96834.19;5047865;28;20049;-77
2022/04/15 06:56:27;;;;;;;68.32;34.75;;;;;;;13.55;86.52;96828.88;5048132;28;20615;-76
2022/04/15 06:58:54;;;;;;;55.30;33.90;;;;;;;13.53;86.54;96836.63;5047848;28;20864;-75
2022/04/15 07:01:23;;;;;;;56.88;33.42;;;;;;;13.70;86.51;96829.50;5047250;28;20143;-76
2022/04/15 07:03:50;;;;;;;52.35;31.38;;;;;;;13.90;85.62;96827.97;5048014;28;20795;-75
2022/04/15 07:06:17;;;;;;;63.88;34.40;;;;;;;13.93;86.08;96828.09;5046783;28;20052;-76
2022/04/15 07:08:44;;;;;;;55.40;32.63;;;;;;;14.02;84.33;96836.31;5048147;28;20052;-77
2022/04/15 07:11:10;;;;;;;52.90;32.80;;;;;;;14.00;83.79;96833.91;5046773;28;20058;-75
2022/04/15 07:13:37;;;;;;;53.55;32.70;;;;;;;14.12;83.36;96837.88;5048313;28;20053;-76
2022/04/15 07:16:04;;;;;;;56.08;31.45;;;;;;;14.14;82.40;96843.81;5046948;28;20044;-75
2022/04/15 07:18:30;;;;;;;57.00;31.65;;;;;;;14.01;83.98;96838.25;5047674;28;20659;-76
2022/04/15 07:20:57;;;;;;;58.72;31.98;;;;;;;14.06;83.38;96849.00;5047218;28;20060;-75
2022/04/15 07:23:24;;;;;;;58.40;30.70;;;;;;;14.10;82.97;96854.66;5047395;28;20045;-76
2022/04/15 07:25:51;;;;;;;50.05;29.77;;;;;;;14.15;83.04;96851.72;5047352;28;20548;-75
2022/04/15 07:28:17;;;;;;;55.55;30.15;;;;;;;14.22;81.96;96853.94;5046797;28;20045;-76
2022/04/15 07:30:44;;;;;;;52.40;29.15;;;;;;;14.25;82.38;96856.00;5047535;28;20049;-76
2022/04/15 07:33:10;;;;;;;55.22;30.17;;;;;;;14.38;81.70;96856.94;5046739;28;20060;-76
2022/04/15 07:35:37;;;;;;;57.22;30.55;;;;;;;14.44;81.49;96855.59;5047916;28;20049;-75
2022/04/15 07:38:03;;;;;;;53.22;29.05;;;;;;;14.56;80.87;96850.25;5046803;28;20052;-76
2022/04/15 07:40:31;;;;;;;51.72;28.52;;;;;;;14.75;79.74;96847.88;5047077;28;20053;-76
2022/04/15 07:42:58;;;;;;;53.67;28.60;;;;;;;15.11;79.96;96849.22;5046481;28;20056;-77
2022/04/15 07:45:24;;;;;;;50.25;25.00;;;;;;;16.00;77.14;96848.88;5046630;28;20044;-76
2022/04/15 07:47:51;;;;;;;35.25;22.70;;;;;;;17.02;71.04;96842.34;5047133;28;20575;-76
2022/04/15 07:50:21;;;;;;;33.42;22.17;;;;;;;18.07;66.39;96842.13;5046307;28;20548;-76
2022/04/15 07:52:48;;;;;;;30.02;20.08;;;;;;;18.47;61.01;96854.91;5047170;28;20056;-76
2022/04/15 07:55:14;;;;;;;39.28;22.90;;;;;;;18.27;62.58;96851.31;5046277;28;20060;-77
2022/04/15 07:57:42;;;;;;;33.63;22.05;;;;;;;18.74;62.92;96850.47;5047089;28;20057;-76
2022/04/15 08:00:10;;;;;;;38.90;22.77;;;;;;;19.34;61.77;96845.47;5045703;28;20049;-76
2022/04/15 08:02:37;;;;;;;30.70;22.85;;;;;;;19.66;60.86;96850.88;5047596;28;20045;-76
2022/04/15 08:05:04;;;;;;;27.65;20.63;;;;;;;20.51;57.40;96846.91;5045423;28;20047;-76
2022/04/15 08:07:31;;;;;;;28.83;20.08;;;;;;;20.95;53.63;96851.94;5046853;28;20115;-76
2022/04/15 08:09:57;;;;;;;26.70;20.40;;;;;;;21.51;53.13;96853.91;5046071;28;20052;-76
2022/04/15 08:12:23;;;;;;;28.77;20.73;;;;;;;21.80;50.68;96851.44;5045720;28;20128;-76
2022/04/15 08:14:52;;;;;;;28.85;20.42;;;;;;;22.28;51.20;96848.78;5046595;28;20049;-78
2022/04/15 08:17:19;;;;;;;32.67;20.75;;;;;;;22.72;48.88;96856.31;5045843;28;20055;-76
2022/04/15 08:19:45;;;;;;;36.13;20.73;;;;;;;22.84;48.67;96853.22;5046911;28;20060;-76
2022/04/15 08:22:12;;;;;;;26.23;18.52;;;;;;;22.85;46.39;96849.25;5046090;28;20053;-76
2022/04/15 08:24:42;;;;;;;37.13;21.20;;;;;;;22.86;47.28;96859.16;5046768;28;20045;-76
2022/04/15 08:27:09;;;;;;;37.10;20.70;;;;;;;22.62;47.92;96858.63;5045331;28;20053;-76
2022/04/15 08:29:38;;;;;;;41.45;20.17;;;;;;;22.78;45.21;96863.09;5046377;28;20045;-76
2022/04/15 08:32:08;;;;;;;32.00;17.17;;;;;;;22.72;44.50;96867.41;5045311;28;20053;-76
2022/04/15 08:34:35;;;;;;;33.15;18.45;;;;;;;22.12;46.15;96862.91;5046186;28;20123;-76
2022/04/15 08:37:02;;;;;;;28.60;15.95;;;;;;;22.04;44.27;96862.03;5045843;28;20053;-75
2022/04/15 08:39:29;;;;;;;39.53;19.25;;;;;;;22.41;44.96;96864.00;5045767;28;20045;-77
2022/04/15 08:41:58;;;;;;;28.52;16.17;;;;;;;22.95;42.59;96865.22;5046028;28;20052;-76
2022/04/15 08:44:25;;;;;;;34.50;16.40;;;;;;;23.53;41.41;96867.13;5044897;28;20056;-77
2022/04/15 08:46:52;;;;;;;29.77;16.05;;;;;;;24.12;42.40;96865.00;5046380;28;20573;-77
2022/04/15 08:49:22;;;;;;;30.35;16.30;;;;;;;24.60;37.14;96867.47;5044778;28;20411;-77
2022/04/15 08:51:48;;;;;;;37.40;17.65;;;;;;;24.39;42.22;96867.44;5045727;28;20052;-77
2022/04/15 08:54:15;;;;;;;32.90;17.73;;;;;;;23.94;40.50;96870.50;5044442;28;20049;-76
2022/04/15 08:56:42;;;;;;;39.97;17.80;;;;;;;24.33;41.23;96874.56;5046024;28;20056;-76
2022/04/15 08:59:08;;;;;;;32.50;15.82;;;;;;;23.79;40.42;96868.06;5045202;28;20072;-76
2022/04/15 09:01:35;;;;;;;34.25;17.13;;;;;;;22.62;44.22;96875.28;5045283;28;20057;-76
2022/04/15 09:04:01;;;;;;;30.67;15.40;;;;;;;21.85;44.39;96865.78;5046250;28;20064;-76
2022/04/15 09:06:31;;;;;;;31.65;15.20;;;;;;;21.70;43.55;96868.75;5044726;28;20045;-77
2022/04/15 09:09:08;;;;;;;27.40;13.50;;;;;;;21.28;45.36;96875.31;5046204;28;20487;-77
2022/04/15 09:11:35;;;;;;;29.85;14.48;;;;;;;21.36;47.00;96874.28;5044123;28;20072;-76
2022/04/15 09:14:04;;;;;;;33.88;14.70;;;;;;;21.62;48.28;96873.44;5045501;28;20052;-76
2022/04/15 09:16:31;;;;;;;32.05;14.48;;;;;;;21.83;42.25;96862.59;5044915;28;20053;-76
2022/04/15 09:18:57;;;;;;;29.85;15.43;;;;;;;21.87;42.86;96862.59;5045681;28;20072;-76
2022/04/15 09:21:25;;;;;;;26.83;13.45;;;;;;;21.46;43.80;96870.06;5044496;28;20526;-76
2022/04/15 09:23:56;;;;;;;33.85;13.23;;;;;;;21.34;43.22;96868.31;5045224;28;20053;-77
2022/04/15 09:26:23;;;;;;;23.20;11.38;;;;;;;21.10;45.90;96875.09;5044835;28;20055;-76
2022/04/15 09:28:51;;;;;;;24.83;12.25;;;;;;;20.96;43.00;96869.34;5044725;28;20057;-77
2022/04/15 09:31:19;;;;;;;28.65;11.07;;;;;;;21.02;42.70;96874.16;5044762;28;20049;-76
2022/04/15 09:33:56;;;;;;;25.10;9.30;;;;;;;20.80;40.99;96863.97;5044912;28;20052;-76
2022/04/15 09:36:27;;;;;;;33.92;12.10;;;;;;;21.06;42.72;96869.50;5045134;28;20060;-76
2022/04/15 09:38:59;;;;;;;27.02;10.88;;;;;;;21.57;43.35;96866.25;5044577;28;20578;-77
2022/04/15 09:41:29;;;;;;;32.00;11.52;;;;;;;21.65;40.80;96858.00;5044201;28;20049;-76
2022/04/15 09:43:58;;;;;;;32.15;12.23;;;;;;;21.45;41.75;96869.25;5045412;28;20045;-76
2022/04/15 09:46:26;;;;;;;32.08;13.13;;;;;;;21.38;42.50;96863.63;5044137;28;20547;-78
2022/04/15 09:49:02;;;;;;;25.80;10.85;;;;;;;21.51;41.35;96865.00;5045780;28;20057;-76
2022/04/15 09:51:34;;;;;;;29.98;11.70;;;;;;;21.59;40.58;96865.84;5044003;28;20041;-76
2022/04/15 09:54:03;;;;;;;28.17;11.65;;;;;;;22.00;45.45;96869.50;5045373;28;20080;-76
2022/04/15 09:56:33;;;;;;;22.48;11.10;;;;;;;22.35;39.75;96857.19;5044278;28;20107;-76
2022/04/15 09:59:05;;;;;;;19.67;11.15;;;;;;;22.55;38.77;96858.56;5044809;28;20044;-77
2022/04/15 10:01:33;;;;;;;23.10;11.32;;;;;;;22.45;40.09;96859.28;5044174;28;20065;-76
2022/04/15 10:04:01;;;;;;;27.67;13.52;;;;;;;22.50;43.23;96849.78;5045677;28;20060;-77
2022/04/15 10:06:29;;;;;;;22.38;11.98;;;;;;;22.70;41.14;96853.09;5048627;28;20073;-76
2022/04/15 10:08:59;;;;;;;25.05;13.02;;;;;;;22.73;38.43;96863.44;5048526;28;20049;-75
2022/04/15 10:11:27;;;;;;;23.63;12.27;;;;;;;22.18;38.65;96855.03;5048524;28;20049;-77
2022/04/15 10:13:55;;;;;;;21.45;12.20;;;;;;;21.74;40.26;96859.31;5048881;28;20057;-76
2022/04/15 10:16:22;;;;;;;30.30;13.60;;;;;;;21.31;39.15;96856.03;5048910;28;20505;-76
2022/04/15 10:18:51;;;;;;;25.63;12.07;;;;;;;21.04;39.26;96852.47;5048776;28;20052;-77
2022/04/15 10:21:17;;;;;;;34.40;14.07;;;;;;;21.24;41.36;96855.09;5047988;28;20064;-76
2022/04/15 10:23:44;;;;;;;23.63;12.60;;;;;;;21.03;39.15;96856.38;5048585;28;20126;-76
2022/04/15 10:26:11;;;;;;;28.33;13.30;;;;;;;20.83;40.15;96849.38;5047738;28;20566;-76
2022/04/15 10:28:42;;;;;;;26.65;12.50;;;;;;;20.68;43.14;96853.09;5048698;28;20048;-76
2022/04/15 10:31:11;;;;;;;29.83;12.23;;;;;;;20.46;40.42;96841.66;5047342;28;20049;-76
2022/04/15 10:33:39;;;;;;;22.35;10.82;;;;;;;20.04;40.78;96853.56;5049337;28;20857;-76
2022/04/15 10:36:12;;;;;;;25.20;11.30;;;;;;;19.59;41.90;96848.78;5047683;28;20144;-77
2022/04/15 10:39:14;;;;;;;30.80;11.95;;;;;;;19.31;42.05;96843.44;5048594;28;20072;-78
2022/04/15 10:42:01;;;;;;;27.55;11.13;;;;;;;19.41;43.31;96842.84;5045857;28;20551;-76
2022/04/15 10:44:36;;;;;;;27.38;10.60;;;;;;;19.81;42.63;96838.94;5047555;28;20167;-77
2022/04/15 10:47:11;;;;;;;24.23;10.93;;;;;;;20.40;44.23;96845.09;5031360;28;20106;-76
2022/04/15 10:49:40;;;;;;;24.65;9.57;;;;;;;20.59;39.01;96832.03;5046327;28;20446;-77
2022/04/15 10:52:18;;;;;;;24.52;9.90;;;;;;;20.61;41.53;96833.59;5047468;28;20055;-76
2022/04/15 10:54:46;;;;;;;24.75;9.63;;;;;;;20.36;40.41;96833.16;5047834;28;20080;-76
2022/04/15 10:57:15;;;;;;;28.20;11.23;;;;;;;19.90;41.57;96836.75;5047608;28;20053;-76
2022/04/15 11:02:39;;;;;;;28.23;10.43;;;;;;;19.40;41.81;96832.97;5048196;28;20178;-77
2022/04/15 11:05:07;;;;;;;29.10;9.57;;;;;;;19.51;41.90;96835.94;5047977;28;20048;-76
2022/04/15 11:07:47;;;;;;;21.52;9.25;;;;;;;19.90;41.05;96841.47;5047242;28;20045;-76
2022/04/15 11:10:19;;;;;;;30.55;10.65;;;;;;;20.27;42.12;96830.69;5047162;28;20045;-76
2022/04/15 11:12:46;;;;;;;21.58;9.18;;;;;;;20.70;38.54;96828.63;5039591;28;20515;-78
2022/04/15 11:15:15;;;;;;;23.75;9.55;;;;;;;20.92;38.83;96824.97;5026110;28;20045;-77
2022/04/15 11:17:47;;;;;;;21.63;8.43;;;;;;;21.23;37.78;96823.03;5027676;28;20592;-76
2022/04/15 11:20:14;;;;;;;25.38;8.45;;;;;;;21.23;39.33;96811.94;5026205;28;20077;-76
2022/04/15 11:22:41;;;;;;;26.88;9.30;;;;;;;21.27;37.46;96812.78;5027834;28;20053;-77